Time,TemperatureF,DewpointF,PressureIn,WindDirection,WindDirectionDegrees,WindSpeedMPH,WindSpeedGustMPH,Humidity,HourlyPrecipIn,Conditions,Clouds,dailyrainin,SoftwareType,DateUTC
2013-04-09 00:00:00,65.8,55.4,30.00,South,178,3.0,8.0,69,0.00,,SKC,0.00,VWS V13.00,2013-04-09 05:00:00,
2013-04-09 00:05:00,65.8,55.4,30.00,South,184,5.0,6.0,69,0.00,,SKC,0.00,VWS V13.00,2013-04-09 05:05:00,
2013-04-09 00:10:00,65.7,55.3,30.00,South,172,2.0,6.0,69,0.00,,SKC,0.00,VWS V13.00,2013-04-09 05:10:00,
2013-04-09 00:15:00,65.7,55.3,30.00,South,180,4.0,8.0,69,0.00,,SKC,0.00,VWS V13.00,2013-04-09 05:15:00,
2013-04-09 00:20:00,65.8,55.4,30.01,South,183,1.0,8.0,69,0.00,,SKC,0.00,VWS V13.00,2013-04-09 05:20:00,
2013-04-09 00:25:00,65.6,55.6,30.00,SSE,164,5.0,8.0,70,0.00,,SKC,0.00,VWS V13.00,2013-04-09 05:25:00,
2013-04-09 00:30:00,65.4,55.4,30.01,South,175,4.0,8.0,70,0.00,,SKC,0.00,VWS V13.00,2013-04-09 05:30:00,
2013-04-09 00:35:00,65.3,55.3,30.01,South,178,5.0,7.0,70,0.00,,SKC,0.00,VWS V13.00,2013-04-09 05:35:00,
2013-04-09 00:40:00,65.1,55.5,30.01,South,173,7.0,8.0,71,0.00,,SKC,0.00,VWS V13.00,2013-04-09 05:40:00,
2013-04-09 00:45:00,65.2,55.6,30.01,South,179,5.0,8.0,71,0.00,,SKC,0.00,VWS V13.00,2013-04-09 05:45:00,
2013-04-09 00:50:00,65.1,55.5,30.00,SSE,167,5.0,8.0,71,0.00,,SKC,0.00,VWS V13.00,2013-04-09 05:50:00,
2013-04-09 00:55:00,64.9,55.3,30.00,South,182,2.0,8.0,71,0.00,,SKC,0.00,VWS V13.00,2013-04-09 05:55:00,
2013-04-09 01:00:00,64.8,55.6,30.00,SSE,167,4.0,8.0,72,0.00,,SKC,0.00,VWS V13.00,2013-04-09 06:00:00,
2013-04-09 01:05:00,64.7,55.5,30.00,South,169,4.0,6.0,72,0.00,,SKC,0.00,VWS V13.00,2013-04-09 06:05:00,
2013-04-09 01:10:00,64.6,55.4,30.00,South,171,2.0,7.0,72,0.00,,SKC,0.00,VWS V13.00,2013-04-09 06:10:00,
2013-04-09 01:15:00,64.5,55.3,30.00,South,171,5.0,7.0,72,0.00,,SKC,0.00,VWS V13.00,2013-04-09 06:15:00,
2013-04-09 01:20:00,64.5,55.3,30.00,South,177,1.0,7.0,72,0.00,,SKC,0.00,VWS V13.00,2013-04-09 06:20:00,
2013-04-09 01:25:00,64.5,55.3,30.00,South,175,1.0,7.0,72,0.00,,SKC,0.00,VWS V13.00,2013-04-09 06:25:00,
2013-04-09 01:30:00,64.3,55.5,30.00,South,172,1.0,7.0,73,0.00,,SKC,0.00,VWS V13.00,2013-04-09 06:30:00,
2013-04-09 01:35:00,64.1,55.3,30.00,South,172,1.0,3.0,73,0.00,,SKC,0.00,VWS V13.00,2013-04-09 06:35:00,
2013-04-09 01:40:00,64.0,55.2,29.99,SSE,155,1.0,5.0,73,0.00,,SKC,0.00,VWS V13.00,2013-04-09 06:40:00,
2013-04-09 01:45:00,63.8,55.4,29.99,SSE,155,1.0,5.0,74,0.00,,SKC,0.00,VWS V13.00,2013-04-09 06:45:00,
2013-04-09 01:50:00,63.6,55.2,29.99,SSE,149,5.0,5.0,74,0.00,,SKC,0.00,VWS V13.00,2013-04-09 06:50:00,
2013-04-09 01:55:00,63.7,55.3,29.99,South,172,3.0,6.0,74,0.00,,SKC,0.00,VWS V13.00,2013-04-09 06:55:00,
2013-04-09 02:00:00,63.8,55.4,29.99,SSE,166,2.0,6.0,74,0.00,,SKC,0.00,VWS V13.00,2013-04-09 07:00:00,
2013-04-09 02:05:00,63.7,55.3,29.99,South,176,1.0,5.0,74,0.00,,SKC,0.00,VWS V13.00,2013-04-09 07:05:00,
2013-04-09 02:10:00,63.7,55.3,29.99,SSE,153,0.0,5.0,74,0.00,,SKC,0.00,VWS V13.00,2013-04-09 07:10:00,
2013-04-09 02:15:00,63.7,55.3,29.99,SSE,157,2.0,5.0,74,0.00,,SKC,0.00,VWS V13.00,2013-04-09 07:15:00,
2013-04-09 02:20:00,63.6,55.5,29.98,SSE,161,4.0,6.0,75,0.00,,SKC,0.00,VWS V13.00,2013-04-09 07:20:00,
2013-04-09 02:25:00,63.4,55.3,29.99,South,173,0.0,6.0,75,0.00,,SKC,0.00,VWS V13.00,2013-04-09 07:25:00,
2013-04-09 02:30:00,63.3,55.2,29.99,SE,142,4.0,6.0,75,0.00,,SKC,0.00,VWS V13.00,2013-04-09 07:30:00,
2013-04-09 02:35:00,63.2,55.5,29.98,SSE,163,1.0,3.0,76,0.00,,SKC,0.00,VWS V13.00,2013-04-09 07:35:00,
2013-04-09 02:40:00,63.0,55.3,29.98,SSE,157,1.0,4.0,76,0.00,,SKC,0.00,VWS V13.00,2013-04-09 07:40:00,
2013-04-09 02:45:00,62.9,55.2,29.98,SSE,165,1.0,4.0,76,0.00,,SKC,0.00,VWS V13.00,2013-04-09 07:45:00,
2013-04-09 02:50:00,62.7,55.0,29.98,SSE,154,5.0,5.0,76,0.00,,SKC,0.00,VWS V13.00,2013-04-09 07:50:00,
2013-04-09 02:55:00,62.7,55.4,29.98,South,172,2.0,6.0,77,0.00,,SKC,0.00,VWS V13.00,2013-04-09 07:55:00,
2013-04-09 03:00:00,62.7,55.4,29.98,SSE,161,0.0,6.0,77,0.00,,SKC,0.00,VWS V13.00,2013-04-09 08:00:00,
2013-04-09 03:05:00,62.6,55.7,29.98,SSE,163,1.0,4.0,78,0.00,,SKC,0.00,VWS V13.00,2013-04-09 08:05:00,
2013-04-09 03:10:00,62.4,55.5,29.98,SSE,163,0.0,4.0,78,0.00,,SKC,0.00,VWS V13.00,2013-04-09 08:10:00,
2013-04-09 03:15:00,62.2,55.3,29.99,SSE,163,0.0,4.0,78,0.00,,SKC,0.00,VWS V13.00,2013-04-09 08:15:00,
2013-04-09 03:20:00,61.8,55.2,29.99,SSE,163,0.0,4.0,79,0.00,,SKC,0.00,VWS V13.00,2013-04-09 08:20:00,
2013-04-09 03:25:00,61.2,55.0,29.99,SSE,163,1.0,4.0,80,0.00,,SKC,0.00,VWS V13.00,2013-04-09 08:25:00,
2013-04-09 03:30:00,60.8,54.9,29.99,SSE,159,0.0,4.0,81,0.00,,SKC,0.00,VWS V13.00,2013-04-09 08:30:00,
2013-04-09 03:35:00,60.7,54.8,29.99,SSE,159,1.0,1.0,81,0.00,,SKC,0.00,VWS V13.00,2013-04-09 08:35:00,
2013-04-09 03:40:00,60.6,55.1,29.99,SSE,159,0.0,2.0,82,0.00,,SKC,0.00,VWS V13.00,2013-04-09 08:40:00,
2013-04-09 03:45:00,60.3,55.1,29.99,SSE,159,0.0,2.0,83,0.00,,SKC,0.00,VWS V13.00,2013-04-09 08:45:00,
2013-04-09 03:50:00,59.8,54.6,29.99,SSE,159,0.0,2.0,83,0.00,,SKC,0.00,VWS V13.00,2013-04-09 08:50:00,
2013-04-09 03:55:00,59.3,54.2,29.99,SSE,159,0.0,2.0,83,0.00,,SKC,0.00,VWS V13.00,2013-04-09 08:55:00,
2013-04-09 04:00:00,58.8,54.3,30.00,SSE,159,0.0,2.0,85,0.00,,SKC,0.00,VWS V13.00,2013-04-09 09:00:00,
2013-04-09 04:05:00,58.4,53.9,30.00,SE,126,0.0,0.0,85,0.00,,SKC,0.00,VWS V13.00,2013-04-09 09:05:00,
2013-04-09 04:10:00,58.3,54.1,30.00,SE,126,0.0,0.0,86,0.00,,SKC,0.00,VWS V13.00,2013-04-09 09:10:00,
2013-04-09 04:15:00,58.1,53.9,30.00,SE,126,0.0,0.0,86,0.00,,SKC,0.00,VWS V13.00,2013-04-09 09:15:00,
2013-04-09 04:20:00,58.0,54.2,30.01,SE,126,0.0,0.0,87,0.00,,SKC,0.00,VWS V13.00,2013-04-09 09:20:00,
2013-04-09 04:25:00,58.0,54.2,30.01,SE,126,0.0,0.0,87,0.00,,SKC,0.00,VWS V13.00,2013-04-09 09:25:00,
2013-04-09 04:30:00,58.0,54.5,30.01,SE,126,0.0,0.0,88,0.00,,SKC,0.00,VWS V13.00,2013-04-09 09:30:00,
2013-04-09 04:35:00,57.9,54.4,30.01,SE,126,0.0,0.0,88,0.00,,SKC,0.00,VWS V13.00,2013-04-09 09:35:00,
2013-04-09 04:40:00,57.8,54.3,30.02,SE,126,0.0,0.0,88,0.00,,SKC,0.00,VWS V13.00,2013-04-09 09:40:00,
2013-04-09 04:45:00,56.8,53.3,30.03,NNW,340,1.0,4.0,88,0.00,,SKC,0.00,VWS V13.00,2013-04-09 09:45:00,
2013-04-09 04:50:00,56.4,53.5,30.03,East,93,2.0,4.0,90,0.00,,SKC,0.00,VWS V13.00,2013-04-09 09:50:00,
2013-04-09 04:55:00,56.2,53.6,30.03,East,96,1.0,4.0,91,0.00,,SKC,0.00,VWS V13.00,2013-04-09 09:55:00,
2013-04-09 05:00:00,56.5,54.2,30.03,ESE,115,1.0,4.0,92,0.00,,SKC,0.00,VWS V13.00,2013-04-09 10:00:00,
2013-04-09 05:05:00,56.8,54.5,30.03,ESE,115,0.0,2.0,92,0.00,,SKC,0.00,VWS V13.00,2013-04-09 10:05:00,
2013-04-09 05:10:00,56.9,53.7,30.04,ESE,115,0.0,2.0,89,0.00,,SKC,0.00,VWS V13.00,2013-04-09 10:10:00,
2013-04-09 05:15:00,56.4,53.5,30.04,ESE,115,0.0,2.0,90,0.00,,SKC,0.00,VWS V13.00,2013-04-09 10:15:00,
2013-04-09 05:20:00,56.3,53.4,30.04,ESE,115,0.0,2.0,90,0.00,,SKC,0.00,VWS V13.00,2013-04-09 10:20:00,
2013-04-09 05:25:00,55.9,53.0,30.04,ESE,115,0.0,2.0,90,0.00,,SKC,0.00,VWS V13.00,2013-04-09 10:25:00,
2013-04-09 05:30:00,55.6,53.0,30.04,ESE,115,0.0,2.0,91,0.00,,SKC,0.00,VWS V13.00,2013-04-09 10:30:00,
2013-04-09 05:35:00,55.4,52.8,30.05,ESE,115,1.0,2.0,91,0.00,,SKC,0.00,VWS V13.00,2013-04-09 10:35:00,
2013-04-09 05:40:00,55.3,53.3,30.05,ESE,115,0.0,2.0,93,0.00,,SKC,0.00,VWS V13.00,2013-04-09 10:40:00,
2013-04-09 05:45:00,55.9,54.5,30.04,ESE,115,0.0,2.0,95,0.00,,SKC,0.00,VWS V13.00,2013-04-09 10:45:00,
2013-04-09 05:50:00,56.6,54.9,30.05,ESE,119,0.0,5.0,94,0.00,,SKC,0.00,VWS V13.00,2013-04-09 10:50:00,
2013-04-09 05:55:00,57.0,54.7,30.05,ESE,119,0.0,5.0,92,0.00,,SKC,0.00,VWS V13.00,2013-04-09 10:55:00,
2013-04-09 06:00:00,57.3,55.0,30.05,ESE,119,1.0,5.0,92,0.00,,SKC,0.00,VWS V13.00,2013-04-09 11:00:00,
2013-04-09 06:05:00,57.6,55.3,30.05,ESE,119,1.0,2.0,92,0.00,,SKC,0.00,VWS V13.00,2013-04-09 11:05:00,
2013-04-09 06:10:00,57.8,55.2,30.05,ESE,119,0.0,2.0,91,0.00,,SKC,0.00,VWS V13.00,2013-04-09 11:10:00,
2013-04-09 06:15:00,57.8,55.2,30.05,ESE,119,0.0,2.0,91,0.00,,SKC,0.00,VWS V13.00,2013-04-09 11:15:00,
2013-04-09 06:20:00,57.5,54.6,30.06,ESE,119,0.0,2.0,90,0.00,,SKC,0.00,VWS V13.00,2013-04-09 11:20:00,
2013-04-09 06:25:00,57.3,54.7,30.06,ESE,119,0.0,2.0,91,0.00,,SKC,0.00,VWS V13.00,2013-04-09 11:25:00,
2013-04-09 06:30:00,57.1,54.5,30.06,ESE,119,0.0,2.0,91,0.00,,SKC,0.00,VWS V13.00,2013-04-09 11:30:00,
2013-04-09 06:35:00,57.1,54.8,30.05,ESE,119,0.0,1.0,92,0.00,,SKC,0.00,VWS V13.00,2013-04-09 11:35:00,
2013-04-09 06:40:00,57.2,54.9,30.06,ESE,119,0.0,1.0,92,0.00,,SKC,0.00,VWS V13.00,2013-04-09 11:40:00,
2013-04-09 06:45:00,57.5,54.9,30.06,ESE,119,0.0,1.0,91,0.00,,SKC,0.00,VWS V13.00,2013-04-09 11:45:00,
2013-04-09 06:50:00,57.9,55.3,30.06,ESE,119,1.0,3.0,91,0.00,,SKC,0.00,VWS V13.00,2013-04-09 11:50:00,
2013-04-09 06:55:00,58.4,55.5,30.05,SE,126,0.0,3.0,90,0.00,,SKC,0.00,VWS V13.00,2013-04-09 11:55:00,
2013-04-09 07:00:00,58.9,55.7,30.05,SE,126,1.0,3.0,89,0.00,,SKC,0.00,VWS V13.00,2013-04-09 12:00:00,
2013-04-09 07:05:00,59.6,56.0,30.06,SE,146,0.0,4.0,88,0.00,,SKC,0.00,VWS V13.00,2013-04-09 12:05:00,
2013-04-09 07:10:00,60.2,56.3,30.06,SE,138,1.0,5.0,87,0.00,,SKC,0.00,VWS V13.00,2013-04-09 12:10:00,
2013-04-09 07:15:00,60.9,56.4,30.06,ESE,118,0.0,5.0,85,0.00,,SKC,0.00,VWS V13.00,2013-04-09 12:15:00,
2013-04-09 07:20:00,61.5,57.0,30.06,ESE,113,1.0,5.0,85,0.00,,SKC,0.00,VWS V13.00,2013-04-09 12:20:00,
2013-04-09 07:25:00,62.0,57.1,30.06,ESE,109,0.0,6.0,84,0.00,,SKC,0.00,VWS V13.00,2013-04-09 12:25:00,
2013-04-09 07:30:00,62.5,57.3,30.06,SE,130,2.0,7.0,83,0.00,,SKC,0.00,VWS V13.00,2013-04-09 12:30:00,
2013-04-09 07:35:00,63.0,57.4,30.06,SSE,148,2.0,6.0,82,0.00,,SKC,0.00,VWS V13.00,2013-04-09 12:35:00,
2013-04-09 07:40:00,63.5,58.2,30.06,SSE,164,0.0,7.0,83,0.00,,SKC,0.00,VWS V13.00,2013-04-09 12:40:00,
2013-04-09 07:45:00,64.1,58.2,30.06,ESE,115,3.0,7.0,81,0.00,,SKC,0.00,VWS V13.00,2013-04-09 12:45:00,
2013-04-09 07:50:00,64.8,58.5,30.06,South,171,4.0,7.0,80,0.00,,SKC,0.00,VWS V13.00,2013-04-09 12:50:00,
2013-04-09 07:55:00,65.4,58.7,30.06,ESE,116,0.0,7.0,79,0.00,,SKC,0.00,VWS V13.00,2013-04-09 12:55:00,
2013-04-09 08:00:00,66.0,59.0,30.06,East,84,3.0,7.0,78,0.00,,SKC,0.00,VWS V13.00,2013-04-09 13:00:00,
2013-04-09 08:05:00,66.4,59.3,30.06,ESE,111,2.0,7.0,78,0.00,,SKC,0.00,VWS V13.00,2013-04-09 13:05:00,
2013-04-09 08:10:00,66.8,59.0,30.07,SSE,163,2.0,7.0,76,0.00,,SKC,0.00,VWS V13.00,2013-04-09 13:10:00,
2013-04-09 08:15:00,67.4,59.6,30.07,SE,143,6.0,7.0,76,0.00,,SKC,0.00,VWS V13.00,2013-04-09 13:15:00,
2013-04-09 08:20:00,67.9,59.7,30.07,East,84,6.0,8.0,75,0.00,,SKC,0.00,VWS V13.00,2013-04-09 13:20:00,
2013-04-09 08:25:00,68.1,59.5,30.07,SSE,165,3.0,9.0,74,0.00,,SKC,0.00,VWS V13.00,2013-04-09 13:25:00,
2013-04-09 08:30:00,68.2,59.6,30.07,SSE,165,5.0,9.0,74,0.00,,SKC,0.00,VWS V13.00,2013-04-09 13:30:00,
2013-04-09 08:35:00,68.0,59.0,30.07,SSW,192,6.0,10.0,73,0.00,,SKC,0.00,VWS V13.00,2013-04-09 13:35:00,
2013-04-09 08:40:00,68.2,59.6,30.07,SSW,198,4.0,11.0,74,0.00,,SKC,0.00,VWS V13.00,2013-04-09 13:40:00,
2013-04-09 08:45:00,68.4,59.4,30.07,SSE,151,9.0,11.0,73,0.00,,SKC,0.00,VWS V13.00,2013-04-09 13:45:00,
2013-04-09 08:50:00,68.8,60.9,30.07,SSW,198,4.0,11.0,76,0.00,,SKC,0.00,VWS V13.00,2013-04-09 13:50:00,
2013-04-09 08:55:00,69.0,59.6,30.08,SSW,205,6.0,12.0,72,0.00,,SKC,0.00,VWS V13.00,2013-04-09 13:55:00,
2013-04-09 09:00:00,68.6,59.6,30.08,South,180,5.0,12.0,73,0.00,,SKC,0.00,VWS V13.00,2013-04-09 14:00:00,
2013-04-09 09:05:00,68.6,59.6,30.09,South,184,4.0,8.0,73,0.00,,SKC,0.00,VWS V13.00,2013-04-09 14:05:00,
2013-04-09 09:10:00,68.5,59.5,30.09,SSW,193,2.0,10.0,73,0.00,,SKC,0.00,VWS V13.00,2013-04-09 14:10:00,
2013-04-09 09:15:00,68.6,59.2,30.09,SE,137,2.0,10.0,72,0.00,,SKC,0.00,VWS V13.00,2013-04-09 14:15:00,
2013-04-09 09:20:00,68.8,60.2,30.09,South,184,5.0,10.0,74,0.00,,SKC,0.00,VWS V13.00,2013-04-09 14:20:00,
2013-04-09 09:25:00,69.0,59.6,30.09,SSE,159,5.0,10.0,72,0.00,,SKC,0.00,VWS V13.00,2013-04-09 14:25:00,
2013-04-09 09:30:00,69.2,59.8,30.10,South,174,5.0,10.0,72,0.00,,SKC,0.00,VWS V13.00,2013-04-09 14:30:00,
2013-04-09 09:35:00,69.5,59.3,30.10,South,188,3.0,10.0,70,0.00,,SKC,0.00,VWS V13.00,2013-04-09 14:35:00,
2013-04-09 09:40:00,69.7,59.9,30.10,SSW,200,4.0,10.0,71,0.00,,SKC,0.00,VWS V13.00,2013-04-09 14:40:00,
2013-04-09 09:45:00,69.8,58.8,30.10,SSE,162,5.0,10.0,68,0.00,,SKC,0.00,VWS V13.00,2013-04-09 14:45:00,
2013-04-09 09:50:00,69.9,58.9,30.10,SSW,209,5.0,10.0,68,0.00,,SKC,0.00,VWS V13.00,2013-04-09 14:50:00,
2013-04-09 09:55:00,69.9,58.9,30.10,SW,234,7.0,13.0,68,0.00,,SKC,0.00,VWS V13.00,2013-04-09 14:55:00,
2013-04-09 10:00:00,69.9,59.3,30.11,South,169,5.0,13.0,69,0.00,,SKC,0.00,VWS V13.00,2013-04-09 15:00:00,
2013-04-09 10:05:00,70.1,59.1,30.11,SSW,212,7.0,12.0,68,0.00,,SKC,0.00,VWS V13.00,2013-04-09 15:05:00,
2013-04-09 10:10:00,70.4,59.3,30.12,South,185,6.0,12.0,68,0.00,,SKC,0.00,VWS V13.00,2013-04-09 15:10:00,
2013-04-09 10:15:00,71.0,59.9,30.11,West,265,4.0,12.0,68,0.00,,SKC,0.00,VWS V13.00,2013-04-09 15:15:00,
2013-04-09 10:20:00,71.2,59.7,30.12,SW,224,2.0,12.0,67,0.00,,SKC,0.00,VWS V13.00,2013-04-09 15:20:00,
2013-04-09 10:25:00,71.3,58.5,30.12,SW,232,1.0,12.0,64,0.00,,SKC,0.00,VWS V13.00,2013-04-09 15:25:00,
2013-04-09 10:30:00,71.6,59.2,30.12,WSW,246,6.0,12.0,65,0.00,,SKC,0.00,VWS V13.00,2013-04-09 15:30:00,
2013-04-09 10:35:00,72.0,58.7,30.12,West,263,1.0,7.0,63,0.00,,SKC,0.00,VWS V13.00,2013-04-09 15:35:00,
2013-04-09 10:40:00,72.7,60.7,30.12,SSW,196,7.0,8.0,66,0.00,,SKC,0.00,VWS V13.00,2013-04-09 15:40:00,
2013-04-09 10:45:00,73.0,60.5,30.12,SSW,194,5.0,11.0,65,0.00,,SKC,0.00,VWS V13.00,2013-04-09 15:45:00,
2013-04-09 10:50:00,73.3,58.6,30.12,SW,224,7.0,11.0,60,0.00,,SKC,0.00,VWS V13.00,2013-04-09 15:50:00,
2013-04-09 10:55:00,73.2,59.0,30.12,South,186,7.0,11.0,61,0.00,,SKC,0.00,VWS V13.00,2013-04-09 15:55:00,
2013-04-09 11:00:00,73.3,60.0,30.12,South,178,6.0,11.0,63,0.00,,SKC,0.00,VWS V13.00,2013-04-09 16:00:00,
2013-04-09 11:05:00,73.8,61.3,30.12,SSW,205,2.0,9.0,65,0.00,,SKC,0.00,VWS V13.00,2013-04-09 16:05:00,
2013-04-09 11:10:00,74.3,59.5,30.12,SW,232,8.0,11.0,60,0.00,,SKC,0.00,VWS V13.00,2013-04-09 16:10:00,
2013-04-09 11:15:00,74.0,58.8,30.12,SSW,192,8.0,15.0,59,0.00,,SKC,0.00,VWS V13.00,2013-04-09 16:15:00,
2013-04-09 11:20:00,73.8,59.1,30.12,South,190,5.0,15.0,60,0.00,,SKC,0.00,VWS V13.00,2013-04-09 16:20:00,
2013-04-09 11:25:00,73.8,59.5,30.12,SSW,192,5.0,15.0,61,0.00,,SKC,0.00,VWS V13.00,2013-04-09 16:25:00,
2013-04-09 11:30:00,74.0,60.2,30.11,SSW,206,4.0,15.0,62,0.00,,SKC,0.00,VWS V13.00,2013-04-09 16:30:00,
2013-04-09 11:35:00,74.3,60.0,30.11,SSW,202,4.0,9.0,61,0.00,,SKC,0.00,VWS V13.00,2013-04-09 16:35:00,
2013-04-09 11:40:00,74.5,60.6,30.11,South,188,1.0,9.0,62,0.00,,SKC,0.00,VWS V13.00,2013-04-09 16:40:00,
2013-04-09 11:45:00,74.4,60.1,30.10,SSW,211,6.0,9.0,61,0.00,,SKC,0.00,VWS V13.00,2013-04-09 16:45:00,
2013-04-09 11:50:00,74.3,60.0,30.10,South,189,2.0,9.0,61,0.00,,SKC,0.00,VWS V13.00,2013-04-09 16:50:00,
2013-04-09 11:55:00,74.7,59.9,30.10,SSW,194,5.0,9.0,60,0.00,,SKC,0.00,VWS V13.00,2013-04-09 16:55:00,
2013-04-09 12:00:00,74.7,59.4,30.10,South,172,5.0,9.0,59,0.00,,SKC,0.00,VWS V13.00,2013-04-09 17:00:00,
2013-04-09 12:05:00,74.8,60.0,30.10,West,270,5.0,5.0,60,0.00,,SKC,0.00,VWS V13.00,2013-04-09 17:05:00,
2013-04-09 12:10:00,75.1,60.3,30.10,SSW,192,5.0,9.0,60,0.00,,SKC,0.00,VWS V13.00,2013-04-09 17:10:00,
2013-04-09 12:15:00,75.2,59.9,30.10,SW,215,9.0,11.0,59,0.00,,SKC,0.00,VWS V13.00,2013-04-09 17:15:00,
2013-04-09 12:20:00,75.4,59.6,30.10,South,175,7.0,11.0,58,0.00,,SKC,0.00,VWS V13.00,2013-04-09 17:20:00,
2013-04-09 12:25:00,75.7,60.4,30.09,SSW,196,11.0,12.0,59,0.00,,SKC,0.00,VWS V13.00,2013-04-09 17:25:00,
2013-04-09 12:30:00,75.5,59.2,30.09,South,172,5.0,12.0,57,0.00,,SKC,0.00,VWS V13.00,2013-04-09 17:30:00,
2013-04-09 12:35:00,75.6,59.3,30.09,SSW,202,8.0,18.0,57,0.00,,SKC,0.00,VWS V13.00,2013-04-09 17:35:00,
2013-04-09 12:40:00,75.8,60.5,30.09,SSW,194,8.0,18.0,59,0.00,,SKC,0.00,VWS V13.00,2013-04-09 17:40:00,
2013-04-09 12:45:00,76.3,60.9,30.09,SSE,164,9.0,18.0,59,0.00,,SKC,0.00,VWS V13.00,2013-04-09 17:45:00,
2013-04-09 12:50:00,76.5,61.6,30.08,SSE,162,8.0,18.0,60,0.00,,SKC,0.00,VWS V13.00,2013-04-09 17:50:00,
2013-04-09 12:55:00,76.4,60.1,30.08,South,183,8.0,19.0,57,0.00,,SKC,0.00,VWS V13.00,2013-04-09 17:55:00,
2013-04-09 13:00:00,76.7,59.3,30.08,South,180,11.0,19.0,55,0.00,,SKC,0.00,VWS V13.00,2013-04-09 18:00:00,
2013-04-09 13:05:00,76.7,59.3,30.08,SSE,167,1.0,16.0,55,0.00,,SKC,0.00,VWS V13.00,2013-04-09 18:05:00,
2013-04-09 13:10:00,77.2,58.8,30.08,SSW,211,7.0,16.0,53,0.00,,SKC,0.00,VWS V13.00,2013-04-09 18:10:00,
2013-04-09 13:15:00,76.9,59.0,30.07,SSE,153,5.0,16.0,54,0.00,,SKC,0.00,VWS V13.00,2013-04-09 18:15:00,
2013-04-09 13:20:00,77.2,59.8,30.07,South,188,12.0,16.0,55,0.00,,SKC,0.00,VWS V13.00,2013-04-09 18:20:00,
2013-04-09 13:25:00,77.6,59.1,30.06,SW,235,9.0,18.0,53,0.00,,SKC,0.00,VWS V13.00,2013-04-09 18:25:00,
2013-04-09 13:30:00,78.0,61.5,30.06,SSE,161,4.0,18.0,57,0.00,,SKC,0.00,VWS V13.00,2013-04-09 18:30:00,
2013-04-09 13:35:00,78.5,60.0,30.06,SW,225,9.0,15.0,53,0.00,,SKC,0.00,VWS V13.00,2013-04-09 18:35:00,
2013-04-09 13:40:00,78.4,60.4,30.06,South,184,12.0,15.0,54,0.00,,SKC,0.00,VWS V13.00,2013-04-09 18:40:00,
2013-04-09 13:46:00,78.4,61.4,30.06,South,169,7.0,15.0,56,0.00,,SKC,0.00,VWS V13.00,2013-04-09 18:46:00,
2013-04-09 13:51:00,79.3,60.2,30.06,SSW,202,7.0,15.0,52,0.00,,SKC,0.00,VWS V13.00,2013-04-09 18:51:00,
2013-04-09 13:56:00,79.1,58.9,30.06,SSE,163,6.0,16.0,50,0.00,,SKC,0.00,VWS V13.00,2013-04-09 18:56:00,
2013-04-09 14:01:00,79.1,61.0,30.05,SW,216,5.0,16.0,54,0.00,,SKC,0.00,VWS V13.00,2013-04-09 19:01:00,
2013-04-09 14:06:00,79.1,59.4,30.06,SSW,200,7.0,20.0,51,0.00,,SKC,0.00,VWS V13.00,2013-04-09 19:06:00,
2013-04-09 14:11:00,78.9,60.9,30.05,WSW,239,8.0,20.0,54,0.00,,SKC,0.00,VWS V13.00,2013-04-09 19:11:00,
2013-04-09 14:16:00,78.8,59.7,30.05,South,186,5.0,20.0,52,0.00,,SKC,0.00,VWS V13.00,2013-04-09 19:16:00,
2013-04-09 14:21:00,78.5,60.0,30.05,SSW,211,8.0,20.0,53,0.00,,SKC,0.00,VWS V13.00,2013-04-09 19:21:00,
2013-04-09 14:26:00,78.6,61.1,30.05,South,190,4.0,20.0,55,0.00,,SKC,0.00,VWS V13.00,2013-04-09 19:26:00,
2013-04-09 14:31:00,78.7,60.2,30.04,SE,142,5.0,20.0,53,0.00,,SKC,0.00,VWS V13.00,2013-04-09 19:31:00,
2013-04-09 14:37:00,78.4,58.2,30.04,South,191,8.0,15.0,50,0.00,,SKC,0.00,VWS V13.00,2013-04-09 19:37:00,
2013-04-09 14:42:00,78.6,60.1,30.04,SSE,155,4.0,15.0,53,0.00,,SKC,0.00,VWS V13.00,2013-04-09 19:42:00,
2013-04-09 14:47:00,79.3,60.2,30.03,South,170,7.0,15.0,52,0.00,,SKC,0.00,VWS V13.00,2013-04-09 19:47:00,
2013-04-09 14:52:00,79.8,59.5,30.03,South,171,11.0,15.0,50,0.00,,SKC,0.00,VWS V13.00,2013-04-09 19:52:00,
2013-04-09 14:57:00,79.1,58.3,30.03,South,190,7.0,15.0,49,0.00,,SKC,0.00,VWS V13.00,2013-04-09 19:57:00,
2013-04-09 15:02:00,79.1,59.4,30.03,SSW,206,5.0,15.0,51,0.00,,SKC,0.00,VWS V13.00,2013-04-09 20:02:00,
2013-04-09 15:07:00,78.9,58.7,30.03,SSW,192,7.0,13.0,50,0.00,,SKC,0.00,VWS V13.00,2013-04-09 20:07:00,
2013-04-09 15:12:00,78.5,58.9,30.03,SSW,200,13.0,14.0,51,0.00,,SKC,0.00,VWS V13.00,2013-04-09 20:12:00,
2013-04-09 15:17:00,78.4,60.4,30.03,SSE,162,11.0,15.0,54,0.00,,SKC,0.00,VWS V13.00,2013-04-09 20:17:00,
2013-04-09 15:22:00,78.8,58.6,30.03,SW,232,8.0,16.0,50,0.00,,SKC,0.00,VWS V13.00,2013-04-09 20:22:00,
2013-04-09 15:27:00,79.7,59.4,30.03,SE,146,9.0,16.0,50,0.00,,SKC,0.00,VWS V13.00,2013-04-09 20:27:00,
2013-04-09 15:32:00,79.2,57.8,30.03,SSW,192,5.0,5.0,48,0.00,,SKC,0.00,VWS V13.00,2013-04-09 20:32:00,
2013-04-09 15:37:00,79.4,59.2,30.02,South,188,6.0,11.0,50,0.00,,SKC,0.00,VWS V13.00,2013-04-09 20:37:00,
2013-04-09 15:42:00,79.9,58.5,30.02,South,181,6.0,14.0,48,0.00,,SKC,0.00,VWS V13.00,2013-04-09 20:42:00,
2013-04-09 15:48:00,80.4,58.3,30.02,South,173,7.0,14.0,47,0.00,,SKC,0.00,VWS V13.00,2013-04-09 20:48:00,
2013-04-09 15:53:00,80.4,58.3,30.02,SSE,165,9.0,15.0,47,0.00,,SKC,0.00,VWS V13.00,2013-04-09 20:53:00,
2013-04-09 15:58:00,80.1,57.5,30.02,SSW,205,8.0,16.0,46,0.00,,SKC,0.00,VWS V13.00,2013-04-09 20:58:00,
2013-04-09 16:02:00,79.6,58.2,30.02,SSW,194,10.0,15.0,48,0.00,,SKC,0.00,VWS V13.00,2013-04-09 21:02:00,
2013-04-09 16:08:00,79.4,58.0,30.02,South,171,12.0,15.0,48,0.00,,SKC,0.00,VWS V13.00,2013-04-09 21:08:00,
2013-04-09 16:13:00,79.4,58.6,30.01,South,186,6.0,15.0,49,0.00,,SKC,0.00,VWS V13.00,2013-04-09 21:13:00,
2013-04-09 16:18:00,79.4,58.0,30.01,ESE,120,7.0,15.0,48,0.00,,SKC,0.00,VWS V13.00,2013-04-09 21:18:00,
2013-04-09 16:23:00,79.3,59.6,30.01,SSE,164,8.0,15.0,51,0.00,,SKC,0.00,VWS V13.00,2013-04-09 21:23:00,
2013-04-09 16:28:00,79.7,58.9,30.00,SSE,167,8.0,15.0,49,0.00,,SKC,0.00,VWS V13.00,2013-04-09 21:28:00,
2013-04-09 16:33:00,79.8,59.0,30.00,SSE,167,4.0,10.0,49,0.00,,SKC,0.00,VWS V13.00,2013-04-09 21:33:00,
2013-04-09 16:38:00,79.3,58.5,30.00,ESE,107,6.0,13.0,49,0.00,,SKC,0.00,VWS V13.00,2013-04-09 21:38:00,
2013-04-09 16:43:00,78.8,58.6,29.99,SSE,155,2.0,18.0,50,0.00,,SKC,0.00,VWS V13.00,2013-04-09 21:43:00,
2013-04-09 16:48:00,78.5,58.3,29.99,South,191,7.0,18.0,50,0.00,,SKC,0.00,VWS V13.00,2013-04-09 21:48:00,
2013-04-09 16:53:00,78.5,58.9,29.98,SE,142,2.0,18.0,51,0.00,,SKC,0.00,VWS V13.00,2013-04-09 21:53:00,
2013-04-09 16:58:00,78.9,59.2,29.97,SE,143,6.0,18.0,51,0.00,,SKC,0.00,VWS V13.00,2013-04-09 21:58:00,
2013-04-09 17:03:00,79.7,58.9,29.96,SE,146,8.0,12.0,49,0.00,,SKC,0.00,VWS V13.00,2013-04-09 22:03:00,
2013-04-09 17:08:00,80.1,59.2,29.96,South,186,3.0,13.0,49,0.00,,SKC,0.00,VWS V13.00,2013-04-09 22:08:00,
2013-04-09 17:13:00,80.2,58.8,29.97,SSE,162,6.0,19.0,48,0.00,,SKC,0.00,VWS V13.00,2013-04-09 22:13:00,
2013-04-09 17:19:00,80.1,58.1,29.97,SSW,202,8.0,19.0,47,0.00,,SKC,0.00,VWS V13.00,2013-04-09 22:19:00,
2013-04-09 17:24:00,80.1,59.2,29.98,SSW,202,5.0,19.0,49,0.00,,SKC,0.00,VWS V13.00,2013-04-09 22:24:00,
2013-04-09 17:29:00,80.2,57.6,29.99,South,184,6.0,19.0,46,0.00,,SKC,0.00,VWS V13.00,2013-04-09 22:29:00,
2013-04-09 17:34:00,80.1,58.1,29.99,SSW,208,5.0,8.0,47,0.00,,SKC,0.00,VWS V13.00,2013-04-09 22:34:00,
2013-04-09 17:39:00,80.1,58.7,30.00,SSW,196,8.0,12.0,48,0.00,,SKC,0.00,VWS V13.00,2013-04-09 22:39:00,
2013-04-09 17:45:00,80.0,58.6,29.99,SSW,193,5.0,12.0,48,0.00,,SKC,0.00,VWS V13.00,2013-04-09 22:45:00,
2013-04-09 17:50:00,79.9,58.5,29.99,SSW,196,6.0,12.0,48,0.00,,SKC,0.00,VWS V13.00,2013-04-09 22:50:00,
2013-04-09 17:55:00,79.8,58.4,29.99,SW,215,8.0,12.0,48,0.00,,SKC,0.00,VWS V13.00,2013-04-09 22:55:00,
2013-04-09 18:00:00,79.7,58.3,29.99,SSW,208,5.0,12.0,48,0.00,,SKC,0.00,VWS V13.00,2013-04-09 23:00:00,
2013-04-09 18:05:00,79.7,58.3,29.99,SSW,213,3.0,8.0,48,0.00,,SKC,0.00,VWS V13.00,2013-04-09 23:05:00,
2013-04-09 18:09:00,79.4,59.2,29.99,SW,222,4.0,10.0,50,0.00,,SKC,0.00,VWS V13.00,2013-04-09 23:09:00,
2013-04-09 18:14:00,79.2,58.4,29.99,SSW,200,4.0,11.0,49,0.00,,SKC,0.00,VWS V13.00,2013-04-09 23:14:00,
2013-04-09 18:19:00,78.9,57.6,29.99,SSW,202,7.0,11.0,48,0.00,,SKC,0.00,VWS V13.00,2013-04-09 23:19:00,
2013-04-09 18:24:00,78.9,57.6,29.99,SSW,197,4.0,11.0,48,0.00,,SKC,0.00,VWS V13.00,2013-04-09 23:24:00,
2013-04-09 18:29:00,78.7,57.4,29.99,SSW,205,2.0,13.0,48,0.00,,SKC,0.00,VWS V13.00,2013-04-09 23:29:00,
2013-04-09 18:34:00,78.5,57.2,29.99,SSW,192,5.0,9.0,48,0.00,,SKC,0.00,VWS V13.00,2013-04-09 23:34:00,
2013-04-09 18:39:00,78.2,58.1,30.00,South,189,6.0,9.0,50,0.00,,SKC,0.00,VWS V13.00,2013-04-09 23:39:00,
2013-04-09 18:44:00,78.0,57.3,30.00,SSW,195,4.0,9.0,49,0.00,,SKC,0.00,VWS V13.00,2013-04-09 23:44:00,
2013-04-09 18:49:00,77.7,57.6,30.00,South,190,4.0,9.0,50,0.00,,SKC,0.00,VWS V13.00,2013-04-09 23:49:00,
2013-04-09 18:54:00,77.4,57.3,30.00,SSW,210,8.0,10.0,50,0.00,,SKC,0.00,VWS V13.00,2013-04-09 23:54:00,
2013-04-09 18:59:00,77.0,57.5,30.00,South,180,2.0,10.0,51,0.00,,SKC,0.00,VWS V13.00,2013-04-09 23:59:00,
2013-04-09 19:04:00,76.6,57.7,29.99,SSW,196,5.0,9.0,52,0.00,,SKC,0.00,VWS V13.00,2013-04-10 00:04:00,
2013-04-09 19:09:00,76.2,57.8,29.99,South,186,5.0,9.0,53,0.00,,SKC,0.00,VWS V13.00,2013-04-10 00:09:00,
2013-04-09 19:14:00,76.0,57.7,29.99,South,191,2.0,9.0,53,0.00,,SKC,0.00,VWS V13.00,2013-04-10 00:14:00,
2013-04-09 19:19:00,75.7,57.9,29.99,South,189,1.0,9.0,54,0.00,,SKC,0.00,VWS V13.00,2013-04-10 00:19:00,
2013-04-09 19:30:00,74.9,57.2,30.00,South,180,4.0,9.0,54,0.00,,SKC,0.00,VWS V13.00,2013-04-10 00:30:00,
2013-04-09 20:00:00,73.7,57.5,30.00,South,180,3.0,7.0,57,0.00,,SKC,0.00,VWS V13.00,2013-04-10 01:00:00,
2013-04-09 20:30:00,73.0,56.9,30.01,South,180,3.0,7.0,57,0.00,,SKC,0.00,VWS V13.00,2013-04-10 01:30:00,
2013-04-09 21:00:00,72.0,57.4,30.02,South,180,2.0,5.0,60,0.00,,SKC,0.00,VWS V13.00,2013-04-10 02:00:00,
2013-04-09 21:30:00,71.4,57.3,30.02,South,180,2.0,6.0,61,0.00,,SKC,0.00,VWS V13.00,2013-04-10 02:30:00,
2013-04-09 22:00:00,70.1,56.9,30.03,South,180,2.0,7.0,63,0.00,,SKC,0.00,VWS V13.00,2013-04-10 03:00:00,
2013-04-09 22:30:00,70.3,57.1,30.03,South,180,3.0,7.0,63,0.00,,SKC,0.00,VWS V13.00,2013-04-10 03:30:00,
2013-04-09 23:00:00,69.7,56.6,30.02,SSE,158,3.0,7.0,63,0.00,,SKC,0.00,VWS V13.00,2013-04-10 04:00:00,
2013-04-09 23:30:00,69.2,57.0,30.02,SSE,158,3.0,6.0,65,0.00,,SKC,0.00,VWS V13.00,2013-04-10 04:30:00,